Observations for BRESCIA MONTICHIA, Italy (LIPO)

LIPO 191950Z 06006KT 9999 SCT050 17/14 Q1016
LIPO 191850Z 06005KT 9999 SCT050 17/13 Q1015
LIPO 191750Z 05006KT 999 SCT050 18/13 Q1015 
LIPO 191650Z 06008KT 9999 BKN060 18/13 Q1015
LIPO 191550Z 07009KT 9999 SCT060 18/13 Q1015
LIPO 191450Z 06009KT 9999 SCT060 18/14 Q1015
LIPO 191350Z 06012KT 9999 BKN050 18/14 Q1015
LIPO 191250Z 06009KT 9999 BKN050 18/15 Q1015
LIPO 191150Z 05009KT 5000 BR BKN030 17/15 Q1016 
LIPO 191050Z 07005KT 5000 -RA BR OVC050 17/15 Q1016 
LIPO 190950Z 07005KT 5000 -RA BR BKN030 16/15 Q1016 
LIPO 190910Z 06007KT 5000 BR SCT030 SCT060 16/15 Q1016
LIPO 190850Z 06007KT 4000 BR SCT030 OVC060 16/15 Q1015  
LIPO 190750Z 07006KT 5000 BR SCT030 OVC060 15/15 Q1016  
LIPO 190650Z 05007KT 5000 -RA BR BKN030 16/14 Q1015 
LIPO 190550Z 09004KT 6000 OVC030 15/14 Q1015
LIPO 190450Z 06005KT 9999 BKN050 15/15 Q1015
LIPO 190350Z 05006KT 9999 BKN050 15/15 Q1015
LIPO 190250Z 02003KT 9999 BKN050 15/14 Q1015
LIPO 190150Z 10003KT 9999 BKN050 15/15 Q1016
LIPO 190050Z 20003KT 9999 BKN050 15/14 Q1016
LIPO 182350Z 30001KT 9999 BKN050 15/14 Q1016
LIPO 182250Z 15002KT 9999 BKN050 16/14 Q1016
LIPO 182150Z 05003KT 9999 BKN050 16/14 Q1017
LIPO 182050Z 11002KT 9999 BKN050 16/14 Q1017
LIPO 181950Z 01003KT 9999 BKN040 15/14 Q1017